createdAt,value
2022-10-11T00:00:47.267Z,100.00
2022-10-11T00:03:14.634Z,100.00
2022-10-11T00:05:41.816Z,100.00
2022-10-11T00:08:08.318Z,100.00
2022-10-11T00:10:34.832Z,100.00
2022-10-11T00:13:01.301Z,100.00
2022-10-11T00:15:28.072Z,100.00
2022-10-11T00:17:54.541Z,100.00
2022-10-11T00:20:21.029Z,100.00
2022-10-11T00:22:49.293Z,100.00
2022-10-11T00:25:16.856Z,100.00
2022-10-11T00:27:43.305Z,100.00
2022-10-11T00:30:10.641Z,100.00
2022-10-11T00:32:38.575Z,100.00
2022-10-11T00:35:07.190Z,100.00
2022-10-11T00:37:34.829Z,100.00
2022-10-11T00:40:02.042Z,100.00
2022-10-11T00:42:28.682Z,100.00
2022-10-11T00:45:26.932Z,100.00
2022-10-11T00:47:58.038Z,100.00
2022-10-11T00:50:27.157Z,100.00
2022-10-11T00:52:57.886Z,100.00
2022-10-11T00:55:28.252Z,100.00
2022-10-11T00:57:57.878Z,100.00
2022-10-11T01:00:24.524Z,100.00
2022-10-11T01:02:51.084Z,100.00
2022-10-11T01:05:29.134Z,100.00
2022-10-11T01:07:58.989Z,100.00
2022-10-11T01:10:26.894Z,100.00
2022-10-11T01:12:53.295Z,100.00
2022-10-11T01:15:36.106Z,100.00
2022-10-11T01:18:11.018Z,100.00
2022-10-11T01:20:48.375Z,100.00
2022-10-11T01:23:35.808Z,100.00
2022-10-11T01:26:30.958Z,100.00
2022-10-11T01:29:44.884Z,100.00
2022-10-11T01:32:22.978Z,100.00
2022-10-11T01:35:06.450Z,100.00
2022-10-11T01:37:37.173Z,100.00
2022-10-11T01:40:03.720Z,100.00
2022-10-11T01:42:30.378Z,100.00
2022-10-11T01:44:58.605Z,100.00
2022-10-11T01:47:25.828Z,100.00
2022-10-11T01:49:58.453Z,100.00
2022-10-11T01:52:28.974Z,100.00
2022-10-11T01:55:10.801Z,100.00
2022-10-11T01:58:02.231Z,100.00
2022-10-11T02:00:40.786Z,100.00
2022-10-11T02:03:26.646Z,100.00
2022-10-11T02:06:02.767Z,100.00
2022-10-11T02:08:44.604Z,100.00
2022-10-11T02:11:43.492Z,100.00
2022-10-11T02:14:14.946Z,100.00
2022-10-11T02:16:49.224Z,100.00
2022-10-11T02:19:20.623Z,100.00
2022-10-11T02:21:53.118Z,100.00
2022-10-11T02:24:25.221Z,100.00
2022-10-11T02:26:55.532Z,100.00
2022-10-11T02:29:24.312Z,100.00
2022-10-11T02:31:51.918Z,100.00
2022-10-11T02:34:23.259Z,100.00
2022-10-11T02:37:05.778Z,100.00
2022-10-11T02:39:42.022Z,100.00
2022-10-11T02:42:14.312Z,100.00
2022-10-11T02:44:46.450Z,100.00
2022-10-11T02:47:14.000Z,100.00
2022-10-11T02:49:40.465Z,100.00
2022-10-11T02:52:06.990Z,100.00
2022-10-11T02:54:33.491Z,100.00
2022-10-11T02:57:00.009Z,100.00
2022-10-11T02:59:27.176Z,100.00
2022-10-11T03:01:53.818Z,100.00
2022-10-11T03:04:20.508Z,100.00
2022-10-11T03:06:46.879Z,100.00
2022-10-11T03:09:13.324Z,100.00
2022-10-11T03:11:39.768Z,100.00
2022-10-11T03:14:06.290Z,100.00
2022-10-11T03:16:32.806Z,100.00
2022-10-11T03:18:59.297Z,100.00
2022-10-11T03:21:25.896Z,100.00
2022-10-11T03:23:52.295Z,100.00
2022-10-11T03:26:18.780Z,100.00
2022-10-11T03:28:45.353Z,100.00
2022-10-11T03:31:12.079Z,100.00
2022-10-11T03:33:38.439Z,100.00
2022-10-11T03:36:05.728Z,100.00
2022-10-11T03:38:32.455Z,100.00
2022-10-11T03:40:58.906Z,100.00
2022-10-11T03:43:25.354Z,100.00
2022-10-11T03:45:51.829Z,100.00
2022-10-11T03:48:18.277Z,100.00
2022-10-11T03:50:44.698Z,100.00
2022-10-11T03:53:11.412Z,100.00
2022-10-11T03:55:40.104Z,100.00
2022-10-11T03:58:07.194Z,100.00
2022-10-11T04:00:34.871Z,100.00
2022-10-11T04:03:03.879Z,100.00
2022-10-11T04:05:30.743Z,100.00
2022-10-11T04:07:57.531Z,100.00
2022-10-11T04:10:23.993Z,100.00
2022-10-11T04:12:50.422Z,100.00
2022-10-11T04:15:16.990Z,100.00
2022-10-11T04:17:43.365Z,100.00
2022-10-11T04:20:10.371Z,100.00
2022-10-11T04:22:36.797Z,100.00
2022-10-11T04:25:03.470Z,100.00
2022-10-11T04:27:30.197Z,100.00
2022-10-11T04:29:56.710Z,100.00
2022-10-11T04:32:23.069Z,100.00
2022-10-11T04:34:49.725Z,100.00
2022-10-11T04:37:16.182Z,100.00
2022-10-11T04:39:42.625Z,100.00
2022-10-11T04:42:09.057Z,100.00
2022-10-11T04:44:35.664Z,100.00
2022-10-11T04:47:02.046Z,100.00
2022-10-11T04:49:28.476Z,100.00
2022-10-11T04:51:54.968Z,100.00
2022-10-11T04:54:21.622Z,100.00
2022-10-11T04:56:48.124Z,100.00
2022-10-11T04:59:14.642Z,100.00
2022-10-11T05:01:41.242Z,100.00
2022-10-11T05:04:07.694Z,100.00
2022-10-11T05:06:34.257Z,100.00
2022-10-11T05:09:00.661Z,100.00
2022-10-11T05:11:27.392Z,100.00
2022-10-11T05:13:53.886Z,100.00
2022-10-11T05:16:20.257Z,100.00
2022-10-11T05:18:46.705Z,100.00
2022-10-11T05:21:19.326Z,100.00
2022-10-11T05:23:47.080Z,100.00
2022-10-11T05:26:13.857Z,100.00
2022-10-11T05:28:40.499Z,100.00
2022-10-11T05:31:07.178Z,100.00
2022-10-11T05:33:33.566Z,100.00
2022-10-11T05:36:00.559Z,100.00
2022-10-11T05:38:27.252Z,100.00
2022-10-11T05:40:54.331Z,100.00
2022-10-11T05:43:20.756Z,100.00
2022-10-11T05:45:47.332Z,100.00
2022-10-11T05:48:13.730Z,100.00
2022-10-11T05:50:41.061Z,100.00
2022-10-11T05:53:07.917Z,100.00
2022-10-11T05:55:41.898Z,100.00
2022-10-11T05:58:12.305Z,100.00
2022-10-11T06:00:38.814Z,100.00
2022-10-11T06:03:08.324Z,100.00
2022-10-11T06:05:35.794Z,100.00
2022-10-11T06:08:03.346Z,100.00
2022-10-11T06:10:29.904Z,100.00
2022-10-11T06:12:56.304Z,100.00
2022-10-11T06:15:22.780Z,100.00
2022-10-11T06:17:49.402Z,100.00
2022-10-11T06:20:16.138Z,100.00
2022-10-11T06:22:42.694Z,100.00
2022-10-11T06:25:09.382Z,100.00
2022-10-11T06:27:35.838Z,100.00
2022-10-11T06:30:02.804Z,100.00
2022-10-11T06:32:29.385Z,100.00
2022-10-11T06:34:55.790Z,100.00
2022-10-11T06:37:22.280Z,100.00
2022-10-11T06:39:50.353Z,100.00
2022-10-11T06:42:17.564Z,100.00
2022-10-11T06:44:44.067Z,100.00
2022-10-11T06:47:10.496Z,100.00
2022-10-11T06:49:36.997Z,100.00
2022-10-11T06:52:03.506Z,100.00
2022-10-11T06:54:30.082Z,100.00
2022-10-11T06:56:56.524Z,100.00
2022-10-11T06:59:22.982Z,100.00
2022-10-11T07:01:49.539Z,100.00
2022-10-11T07:04:15.956Z,100.00
2022-10-11T07:06:42.468Z,100.00
2022-10-11T07:09:09.010Z,100.00
2022-10-11T07:11:35.988Z,100.00
2022-10-11T07:14:07.541Z,100.00
2022-10-11T07:16:36.153Z,100.00
2022-10-11T07:19:04.536Z,100.00
2022-10-11T07:21:32.752Z,100.00
2022-10-11T07:23:59.518Z,100.00
2022-10-11T07:26:27.305Z,100.00
2022-10-11T07:28:53.964Z,100.00
2022-10-11T07:31:23.354Z,100.00
2022-10-11T07:33:49.800Z,100.00
2022-10-11T07:36:16.394Z,100.00
2022-10-11T07:38:43.307Z,100.00
2022-10-11T07:41:10.969Z,100.00
2022-10-11T07:43:38.513Z,100.00
2022-10-11T07:46:05.822Z,100.00
2022-10-11T07:48:34.920Z,100.00
2022-10-11T07:51:16.935Z,100.00
2022-10-11T07:53:45.423Z,100.00
2022-10-11T07:56:13.917Z,100.00
2022-10-11T07:58:41.531Z,100.00
2022-10-11T08:01:10.174Z,100.00
2022-10-11T08:03:38.032Z,100.00
2022-10-11T08:06:08.844Z,100.00
2022-10-11T08:08:36.522Z,100.00
2022-10-11T08:11:03.584Z,100.00
2022-10-11T08:13:30.077Z,100.00
2022-10-11T08:15:56.908Z,100.00
2022-10-11T08:18:23.947Z,100.00
2022-10-11T08:20:50.489Z,100.00
2022-10-11T08:23:17.715Z,100.00
2022-10-11T08:25:47.250Z,100.00
2022-10-11T08:28:17.960Z,100.00
2022-10-11T08:30:52.839Z,100.00
2022-10-11T08:33:21.315Z,100.00
2022-10-11T08:35:48.855Z,100.00
2022-10-11T08:38:15.920Z,100.00
2022-10-11T08:40:52.061Z,100.00
2022-10-11T08:43:31.557Z,100.00
2022-10-11T08:46:02.502Z,97.44
2022-10-11T08:48:36.682Z,97.17
2022-10-11T08:51:14.470Z,93.20
2022-10-11T08:53:47.750Z,93.41
2022-10-11T08:56:16.216Z,92.38
2022-10-11T08:58:50.414Z,89.90
2022-10-11T09:01:24.803Z,88.58
2022-10-11T09:03:51.941Z,88.94
2022-10-11T09:06:21.585Z,89.21
2022-10-11T09:08:56.557Z,89.29
2022-10-11T09:11:37.703Z,90.33
2022-10-11T09:14:24.200Z,89.97
2022-10-11T09:17:11.974Z,88.00
2022-10-11T09:20:20.491Z,88.48
2022-10-11T09:22:55.472Z,87.91
2022-10-11T09:25:28.751Z,83.72
2022-10-11T09:28:32.537Z,85.85
2022-10-11T09:30:59.370Z,85.78
2022-10-11T09:33:43.035Z,87.65
2022-10-11T09:36:19.644Z,89.10
2022-10-11T09:38:52.256Z,87.63
2022-10-11T09:41:29.250Z,87.39
2022-10-11T09:43:55.773Z,89.86
2022-10-11T09:46:44.088Z,86.70
2022-10-11T09:49:16.680Z,87.31
2022-10-11T09:51:50.426Z,89.29
2022-10-11T09:54:18.313Z,88.07
2022-10-11T09:56:45.904Z,86.91
2022-10-11T09:59:33.874Z,85.24
2022-10-11T10:02:27.744Z,85.34
2022-10-11T10:05:04.204Z,82.94
2022-10-11T10:07:33.237Z,82.11
2022-10-11T10:10:25.861Z,82.50
2022-10-11T10:12:59.387Z,84.12
2022-10-11T10:33:11.688Z,79.44
2022-10-11T10:35:48.434Z,80.73
2022-10-11T10:38:32.799Z,80.71
2022-10-11T10:41:04.424Z,78.78
2022-10-11T10:43:35.765Z,80.07
2022-10-11T10:46:26.753Z,79.49
2022-10-11T10:49:48.894Z,78.33
2022-10-11T10:52:41.584Z,78.24
2022-10-11T10:55:21.761Z,79.79
2022-10-11T10:58:00.128Z,78.08
2022-10-11T11:00:34.066Z,78.29
2022-10-11T11:03:06.347Z,76.98
2022-10-11T11:05:57.644Z,75.30
2022-10-11T11:08:38.982Z,75.82
2022-10-11T11:11:23.814Z,76.10
2022-10-11T11:14:11.952Z,77.56
2022-10-11T11:16:48.936Z,74.48
2022-10-11T11:19:53.328Z,75.42
2022-10-11T11:22:56.902Z,74.82
2022-10-11T11:25:48.289Z,75.79
2022-10-11T11:28:36.714Z,75.09
2022-10-11T11:31:10.413Z,75.18
2022-10-11T11:33:49.392Z,75.10
2022-10-11T11:36:27.537Z,74.59
2022-10-11T11:38:59.861Z,74.56
2022-10-11T11:41:33.314Z,73.54
2022-10-11T11:44:11.195Z,72.62
2022-10-11T11:46:47.318Z,74.30
2022-10-11T11:49:19.154Z,73.32
2022-10-11T11:51:46.442Z,73.91
2022-10-11T11:54:28.716Z,73.38
2022-10-11T11:57:07.084Z,74.28
2022-10-11T11:59:46.763Z,73.14
2022-10-11T12:02:44.872Z,73.94
2022-10-11T12:05:17.006Z,72.73
2022-10-11T12:07:47.789Z,74.35
2022-10-11T12:10:23.379Z,74.39
2022-10-11T12:13:21.206Z,74.99
2022-10-11T12:16:15.627Z,72.03
2022-10-11T12:18:57.396Z,74.03
2022-10-11T12:21:35.642Z,74.35
2022-10-11T12:24:12.541Z,72.47
2022-10-11T12:26:56.810Z,75.07
2022-10-11T12:29:41.576Z,75.28
2022-10-11T12:32:10.856Z,75.97
2022-10-11T12:34:44.498Z,74.94
2022-10-11T12:37:19.899Z,76.17
2022-10-11T12:39:50.723Z,73.62
2022-10-11T12:42:21.768Z,75.21
2022-10-11T12:45:13.171Z,75.03
2022-10-11T12:47:55.807Z,74.75
2022-10-11T12:50:37.498Z,76.97
2022-10-11T12:53:28.260Z,75.72
2022-10-11T12:56:21.090Z,74.64
2022-10-11T12:58:48.399Z,75.76
2022-10-11T13:01:17.536Z,76.11
2022-10-11T13:03:50.843Z,75.96
2022-10-11T13:06:26.247Z,76.27
2022-10-11T13:09:02.286Z,75.31
2022-10-11T13:11:36.189Z,75.74
2022-10-11T13:14:10.668Z,74.47
2022-10-11T13:16:51.515Z,73.41
2022-10-11T13:19:23.019Z,74.00
2022-10-11T13:21:59.139Z,72.00
2022-10-11T13:24:27.272Z,72.58
2022-10-11T13:26:56.413Z,75.83
2022-10-11T13:29:35.814Z,75.07
2022-10-11T13:32:10.990Z,75.80
2022-10-11T13:34:40.313Z,75.06
2022-10-11T13:37:07.897Z,75.37
2022-10-11T13:39:36.740Z,75.27
2022-10-11T13:42:07.965Z,75.19
2022-10-11T13:44:37.596Z,74.65
2022-10-11T13:47:05.014Z,74.11
2022-10-11T13:49:40.053Z,73.91
2022-10-11T13:52:19.226Z,74.08
2022-10-11T13:55:04.071Z,74.04
2022-10-11T13:57:35.959Z,73.73
2022-10-11T14:00:08.967Z,73.25
2022-10-11T14:02:39.048Z,74.54
2022-10-11T14:05:05.950Z,74.80
2022-10-11T14:07:38.737Z,74.01
2022-10-11T14:10:06.841Z,74.86
2022-10-11T14:12:43.240Z,73.78
2022-10-11T14:15:28.378Z,74.80
2022-10-11T14:17:54.836Z,76.11
2022-10-11T14:20:37.096Z,74.59
2022-10-11T14:23:04.205Z,75.70
2022-10-11T14:25:31.038Z,75.84
2022-10-11T14:27:58.145Z,76.38
2022-10-11T14:30:27.561Z,77.36
2022-10-11T14:32:57.690Z,77.92
2022-10-11T14:35:30.992Z,79.50
2022-10-11T14:37:58.145Z,80.10
2022-10-11T14:40:28.961Z,80.46
2022-10-11T14:42:55.653Z,79.31
2022-10-11T14:45:22.283Z,78.63
2022-10-11T14:47:49.620Z,80.37
2022-10-11T14:50:40.429Z,79.98
2022-10-11T14:53:08.844Z,78.65
2022-10-11T14:55:36.716Z,79.29
2022-10-11T14:58:04.590Z,79.80
2022-10-11T15:00:32.100Z,79.75
2022-10-11T15:02:58.768Z,79.09
2022-10-11T15:05:32.711Z,79.14
2022-10-11T15:08:00.933Z,80.45
2022-10-11T15:10:40.777Z,80.83
2022-10-11T15:13:08.997Z,79.50
2022-10-11T15:15:37.640Z,79.55
2022-10-11T15:18:06.579Z,79.26
2022-10-11T15:20:37.703Z,80.42
2022-10-11T15:23:05.328Z,80.07
2022-10-11T15:25:32.384Z,79.41
2022-10-11T15:27:59.170Z,80.47
2022-10-11T15:30:34.815Z,81.20
2022-10-11T15:33:04.867Z,81.90
2022-10-11T15:35:31.348Z,81.13
2022-10-11T15:37:59.222Z,82.33
2022-10-11T15:40:27.086Z,82.38
2022-10-11T15:42:54.850Z,82.91
2022-10-11T15:45:22.616Z,83.28
2022-10-11T15:47:49.460Z,83.43
2022-10-11T15:50:33.703Z,83.59
2022-10-11T15:53:15.652Z,84.03
2022-10-11T15:55:51.114Z,84.76
2022-10-11T15:58:39.231Z,85.21
2022-10-11T16:01:08.786Z,85.28
2022-10-11T16:03:35.996Z,85.70
2022-10-11T16:06:05.232Z,85.97
2022-10-11T16:08:33.074Z,86.99
2022-10-11T16:10:59.552Z,87.16
2022-10-11T16:13:26.065Z,86.84
2022-10-11T16:15:52.571Z,86.58
2022-10-11T16:18:20.949Z,87.15
2022-10-11T16:20:50.038Z,87.82
2022-10-11T16:23:16.832Z,88.63
2022-10-11T16:25:43.423Z,89.18
2022-10-11T16:28:10.615Z,89.69
2022-10-11T16:30:43.118Z,90.11
2022-10-11T16:33:09.920Z,89.56
2022-10-11T16:35:36.860Z,90.39
2022-10-11T16:38:03.320Z,90.36
2022-10-11T16:40:30.117Z,91.06
2022-10-11T16:42:56.598Z,91.90
2022-10-11T16:45:23.422Z,92.33
2022-10-11T16:47:50.349Z,92.80
2022-10-11T16:50:16.909Z,92.82
2022-10-11T16:52:43.323Z,93.59
2022-10-11T16:55:09.885Z,93.91
2022-10-11T16:57:37.769Z,94.72
2022-10-11T17:00:08.789Z,95.68
2022-10-11T17:02:36.021Z,96.12
2022-10-11T17:05:02.722Z,96.47
2022-10-11T17:07:29.790Z,96.65
2022-10-11T17:09:56.340Z,97.49
2022-10-11T17:12:23.613Z,96.84
2022-10-11T17:14:50.575Z,98.50
2022-10-11T17:17:18.671Z,98.30
2022-10-11T17:19:47.288Z,98.68
2022-10-11T17:22:18.554Z,99.68
2022-10-11T17:24:45.326Z,100.00
2022-10-11T17:27:12.208Z,100.00
2022-10-11T17:29:38.756Z,99.84
2022-10-11T17:32:05.532Z,100.00
2022-10-11T17:34:32.155Z,99.43
2022-10-11T17:36:58.539Z,99.69
2022-10-11T17:39:25.698Z,99.83
2022-10-11T17:41:52.455Z,100.00
2022-10-11T17:44:19.403Z,100.00
2022-10-11T17:46:46.637Z,100.00
2022-10-11T17:49:13.586Z,100.00
2022-10-11T17:51:41.012Z,100.00
2022-10-11T17:54:12.335Z,100.00
2022-10-11T17:56:40.756Z,100.00
2022-10-11T17:59:08.353Z,100.00
2022-10-11T18:01:35.642Z,100.00
2022-10-11T18:04:05.009Z,100.00
2022-10-11T18:06:34.161Z,100.00
2022-10-11T18:09:02.070Z,100.00
2022-10-11T18:11:29.280Z,100.00
2022-10-11T18:13:56.410Z,100.00
2022-10-11T18:16:26.907Z,100.00
2022-10-11T18:18:54.199Z,100.00
2022-10-11T18:21:20.715Z,100.00
2022-10-11T18:23:47.273Z,100.00
2022-10-11T18:26:15.151Z,100.00
2022-10-11T18:28:43.228Z,100.00
2022-10-11T18:31:13.625Z,100.00
2022-10-11T18:33:41.026Z,100.00
2022-10-11T18:36:09.333Z,100.00
2022-10-11T18:38:37.929Z,100.00
2022-10-11T18:41:09.096Z,100.00
2022-10-11T18:43:36.191Z,100.00
2022-10-11T18:46:14.339Z,100.00
2022-10-11T18:48:42.460Z,100.00
2022-10-11T18:51:14.439Z,100.00
2022-10-11T18:53:41.638Z,100.00
2022-10-11T18:56:10.359Z,100.00
2022-10-11T18:58:38.084Z,100.00
2022-10-11T19:01:18.035Z,100.00
2022-10-11T19:03:46.253Z,100.00
2022-10-11T19:06:19.748Z,100.00
2022-10-11T19:08:51.294Z,100.00
2022-10-11T19:11:22.183Z,100.00
2022-10-11T19:13:55.365Z,100.00
2022-10-11T19:16:22.186Z,100.00
2022-10-11T19:18:50.024Z,100.00
2022-10-11T19:21:16.937Z,100.00
2022-10-11T19:23:45.393Z,100.00
2022-10-11T19:26:15.353Z,100.00
2022-10-11T19:28:42.768Z,100.00
2022-10-11T19:31:12.959Z,100.00
2022-10-11T19:33:39.451Z,100.00
2022-10-11T19:36:06.815Z,100.00
2022-10-11T19:38:35.397Z,100.00
2022-10-11T19:41:04.056Z,100.00
2022-10-11T19:43:31.626Z,100.00
2022-10-11T19:46:02.509Z,100.00
2022-10-11T19:48:30.076Z,100.00
2022-10-11T19:51:14.508Z,100.00
2022-10-11T19:53:41.376Z,100.00
2022-10-11T19:56:10.674Z,100.00
2022-10-11T19:58:37.897Z,100.00
2022-10-11T20:01:07.230Z,100.00
2022-10-11T20:03:34.741Z,100.00
2022-10-11T20:06:02.611Z,100.00
2022-10-11T20:08:31.258Z,100.00
2022-10-11T20:10:59.383Z,100.00
2022-10-11T20:13:30.060Z,100.00
2022-10-11T20:16:05.365Z,100.00
2022-10-11T20:18:31.951Z,100.00
2022-10-11T20:21:00.076Z,100.00
2022-10-11T20:23:27.817Z,100.00
2022-10-11T20:26:08.151Z,100.00
2022-10-11T20:28:36.296Z,100.00
2022-10-11T20:31:10.318Z,100.00
2022-10-11T20:33:37.670Z,100.00
2022-10-11T20:36:09.547Z,100.00
2022-10-11T20:38:39.223Z,100.00
2022-10-11T20:41:07.923Z,100.00
2022-10-11T20:43:34.598Z,100.00
2022-10-11T20:46:12.894Z,100.00
2022-10-11T20:48:40.637Z,100.00
2022-10-11T20:51:10.778Z,100.00
2022-10-11T20:53:38.578Z,100.00
2022-10-11T20:56:10.247Z,100.00
2022-10-11T20:58:36.855Z,100.00
2022-10-11T21:01:14.109Z,100.00
2022-10-11T21:03:41.430Z,100.00
2022-10-11T21:06:08.705Z,100.00
2022-10-11T21:08:36.647Z,100.00
2022-10-11T21:11:03.574Z,100.00
2022-10-11T21:13:30.668Z,100.00
2022-10-11T21:16:04.750Z,100.00
2022-10-11T21:18:31.261Z,100.00
2022-10-11T21:20:57.744Z,100.00
2022-10-11T21:23:24.313Z,100.00
2022-10-11T21:25:50.662Z,100.00
2022-10-11T21:28:17.091Z,100.00
2022-10-11T21:30:43.587Z,100.00
2022-10-11T21:33:10.007Z,100.00
2022-10-11T21:35:39.093Z,100.00
2022-10-11T21:38:05.560Z,100.00
2022-10-11T21:40:32.056Z,100.00
2022-10-11T21:42:58.513Z,100.00
2022-10-11T21:45:25.034Z,100.00
2022-10-11T21:47:51.541Z,100.00
2022-10-11T21:50:17.956Z,100.00
2022-10-11T21:52:44.530Z,100.00
2022-10-11T21:55:10.917Z,100.00
2022-10-11T21:57:37.433Z,100.00
2022-10-11T22:00:04.830Z,100.00
2022-10-11T22:18:06.422Z,100.00
2022-10-11T22:20:33.703Z,100.00
2022-10-11T22:23:00.306Z,100.00
2022-10-11T22:25:26.798Z,100.00
2022-10-11T22:27:53.405Z,100.00
2022-10-11T22:30:20.121Z,100.00
2022-10-11T22:32:46.679Z,100.00
2022-10-11T22:35:13.129Z,100.00
2022-10-11T22:37:39.705Z,100.00
2022-10-11T22:40:06.628Z,100.00
2022-10-11T22:42:33.203Z,100.00
2022-10-11T22:44:59.847Z,100.00
2022-10-11T22:47:26.643Z,100.00
2022-10-11T22:49:53.194Z,100.00
2022-10-11T22:52:20.024Z,100.00
2022-10-11T22:54:46.396Z,100.00
2022-10-11T22:57:13.020Z,100.00
2022-10-11T22:59:39.440Z,100.00
2022-10-11T23:02:05.963Z,100.00
2022-10-11T23:04:32.350Z,100.00
2022-10-11T23:07:02.552Z,100.00
2022-10-11T23:09:31.692Z,100.00
2022-10-11T23:11:59.111Z,100.00
2022-10-11T23:14:25.631Z,100.00
2022-10-11T23:16:52.146Z,100.00
2022-10-11T23:19:18.889Z,100.00
2022-10-11T23:21:45.774Z,100.00
2022-10-11T23:24:12.402Z,100.00
2022-10-11T23:26:38.907Z,100.00
2022-10-11T23:29:05.359Z,100.00
2022-10-11T23:31:31.870Z,100.00
2022-10-11T23:33:58.357Z,100.00
2022-10-11T23:36:25.787Z,100.00
2022-10-11T23:38:57.088Z,100.00
2022-10-11T23:41:26.531Z,100.00
2022-10-11T23:43:53.423Z,100.00
2022-10-11T23:46:19.919Z,100.00
2022-10-11T23:48:46.558Z,100.00
2022-10-11T23:51:13.329Z,100.00
2022-10-11T23:53:39.877Z,100.00
2022-10-11T23:56:06.479Z,100.00
2022-10-11T23:58:32.982Z,100.00
